sensor_id;sensor_type;location;lat;lon;timestamp;pressure;altitude;pressure_sealevel;temperature
67829;BMP280;54626;45.436;10.942;2024-01-30T00:00:05;102630.34;;;-0.31
67829;BMP280;54626;45.436;10.942;2024-01-30T00:02:32;102618.69;;;-0.28
67829;BMP280;54626;45.436;10.942;2024-01-30T00:04:59;102620.69;;;-0.39
67829;BMP280;54626;45.436;10.942;2024-01-30T00:07:25;102617.91;;;-0.32
67829;BMP280;54626;45.436;10.942;2024-01-30T00:09:52;102621.81;;;-0.33
67829;BMP280;54626;45.436;10.942;2024-01-30T00:12:19;102618.34;;;-0.37
67829;BMP280;54626;45.436;10.942;2024-01-30T00:14:47;102616.41;;;-0.36
67829;BMP280;54626;45.436;10.942;2024-01-30T00:17:16;102612.09;;;-0.34
67829;BMP280;54626;45.436;10.942;2024-01-30T00:19:43;102607.41;;;-0.26
67829;BMP280;54626;45.436;10.942;2024-01-30T00:22:09;102607.44;;;-0.30
67829;BMP280;54626;45.436;10.942;2024-01-30T00:24:36;102606.97;;;-0.21
67829;BMP280;54626;45.436;10.942;2024-01-30T00:27:02;102605.91;;;-0.31
67829;BMP280;54626;45.436;10.942;2024-01-30T00:29:29;102604.72;;;-0.30
67829;BMP280;54626;45.436;10.942;2024-01-30T00:31:59;102605.50;;;-0.33
67829;BMP280;54626;45.436;10.942;2024-01-30T00:34:26;102598.88;;;-0.32
67829;BMP280;54626;45.436;10.942;2024-01-30T00:36:53;102609.75;;;-0.28
67829;BMP280;54626;45.436;10.942;2024-01-30T00:39:19;102605.50;;;-0.29
67829;BMP280;54626;45.436;10.942;2024-01-30T00:41:46;102617.91;;;-0.28
67829;BMP280;54626;45.436;10.942;2024-01-30T00:44:13;102610.56;;;-0.31
67829;BMP280;54626;45.436;10.942;2024-01-30T00:46:39;102615.19;;;-0.32
67829;BMP280;54626;45.436;10.942;2024-01-30T00:49:06;102615.19;;;-0.28
67829;BMP280;54626;45.436;10.942;2024-01-30T00:51:33;102616.41;;;-0.36
67829;BMP280;54626;45.436;10.942;2024-01-30T00:53:59;102617.97;;;-0.39
67829;BMP280;54626;45.436;10.942;2024-01-30T00:56:26;102628.84;;;-0.35
67829;BMP280;54626;45.436;10.942;2024-01-30T00:58:55;102626.50;;;-0.37
67829;BMP280;54626;45.436;10.942;2024-01-30T01:01:22;102624.91;;;-0.31
67829;BMP280;54626;45.436;10.942;2024-01-30T01:03:49;102624.94;;;-0.34
67829;BMP280;54626;45.436;10.942;2024-01-30T01:06:15;102622.59;;;-0.36
67829;BMP280;54626;45.436;10.942;2024-01-30T01:08:42;102623.34;;;-0.32
67829;BMP280;54626;45.436;10.942;2024-01-30T01:11:08;102634.22;;;-0.28
67829;BMP280;54626;45.436;10.942;2024-01-30T01:13:35;102631.91;;;-0.30
67829;BMP280;54626;45.436;10.942;2024-01-30T01:16:02;102634.97;;;-0.28
67829;BMP280;54626;45.436;10.942;2024-01-30T01:18:28;102637.31;;;-0.26
67829;BMP280;54626;45.436;10.942;2024-01-30T01:20:55;102638.09;;;-0.33
67829;BMP280;54626;45.436;10.942;2024-01-30T01:23:22;102643.53;;;-0.33
67829;BMP280;54626;45.436;10.942;2024-01-30T01:25:48;102639.66;;;-0.28
67829;BMP280;54626;45.436;10.942;2024-01-30T01:28:17;102640.03;;;-0.26
67829;BMP280;54626;45.436;10.942;2024-01-30T01:30:44;102633.41;;;-0.25
67829;BMP280;54626;45.436;10.942;2024-01-30T01:33:10;102635.72;;;-0.24
67829;BMP280;54626;45.436;10.942;2024-01-30T01:35:40;102637.63;;;-0.21
67829;BMP280;54626;45.436;10.942;2024-01-30T01:38:09;102639.00;;;-0.03
67829;BMP280;54626;45.436;10.942;2024-01-30T01:40:36;102632.38;;;0.02
67829;BMP280;54626;45.436;10.942;2024-01-30T01:43:03;102631.56;;;0.01
67829;BMP280;54626;45.436;10.942;2024-01-30T01:45:31;102631.75;;;-0.16
67829;BMP280;54626;45.436;10.942;2024-01-30T01:48:00;102629.47;;;-0.21
67829;BMP280;54626;45.436;10.942;2024-01-30T01:50:27;102623.22;;;-0.18
67829;BMP280;54626;45.436;10.942;2024-01-30T01:52:55;102627.84;;;-0.15
67829;BMP280;54626;45.436;10.942;2024-01-30T01:55:22;102637.97;;;-0.15
67829;BMP280;54626;45.436;10.942;2024-01-30T01:57:52;102629.81;;;-0.15
67829;BMP280;54626;45.436;10.942;2024-01-30T02:00:20;102630.19;;;-0.13
67829;BMP280;54626;45.436;10.942;2024-01-30T02:02:47;102619.81;;;-0.25
67829;BMP280;54626;45.436;10.942;2024-01-30T02:05:15;102614.44;;;-0.32
67829;BMP280;54626;45.436;10.942;2024-01-30T02:07:42;102619.88;;;-0.36
67829;BMP280;54626;45.436;10.942;2024-01-30T02:10:09;102612.91;;;-0.37
67829;BMP280;54626;45.436;10.942;2024-01-30T02:12:36;102611.75;;;-0.36
67829;BMP280;54626;45.436;10.942;2024-01-30T02:15:03;102613.25;;;-0.28
67829;BMP280;54626;45.436;10.942;2024-01-30T02:17:31;102604.66;;;-0.23
67829;BMP280;54626;45.436;10.942;2024-01-30T02:20:00;102593.41;;;-0.25
67829;BMP280;54626;45.436;10.942;2024-01-30T02:22:30;102596.16;;;-0.32
67829;BMP280;54626;45.436;10.942;2024-01-30T02:24:58;102603.56;;;-0.32
67829;BMP280;54626;45.436;10.942;2024-01-30T02:27:25;102605.56;;;-0.36
67829;BMP280;54626;45.436;10.942;2024-01-30T02:29:52;102604.31;;;-0.32
67829;BMP280;54626;45.436;10.942;2024-01-30T02:32:18;102605.56;;;-0.36
67829;BMP280;54626;45.436;10.942;2024-01-30T02:34:45;102606.66;;;-0.34
67829;BMP280;54626;45.436;10.942;2024-01-30T02:37:11;102605.50;;;-0.29
67829;BMP280;54626;45.436;10.942;2024-01-30T02:39:38;102603.09;;;-0.24
67829;BMP280;54626;45.436;10.942;2024-01-30T02:42:05;102598.53;;;-0.34
67829;BMP280;54626;45.436;10.942;2024-01-30T02:44:31;102597.34;;;-0.33
67829;BMP280;54626;45.436;10.942;2024-01-30T02:46:58;102597.03;;;-0.38
67829;BMP280;54626;45.436;10.942;2024-01-30T02:49:27;102604.47;;;-0.46
67829;BMP280;54626;45.436;10.942;2024-01-30T02:51:54;102595.06;;;-0.38
67829;BMP280;54626;45.436;10.942;2024-01-30T02:54:21;102590.81;;;-0.39
67829;BMP280;54626;45.436;10.942;2024-01-30T02:56:47;102590.44;;;-0.41
67829;BMP280;54626;45.436;10.942;2024-01-30T02:59:17;102593.22;;;-0.44
67829;BMP280;54626;45.436;10.942;2024-01-30T03:01:44;102580.06;;;-0.49
67829;BMP280;54626;45.436;10.942;2024-01-30T03:04:11;102592.63;;;-0.66
67829;BMP280;54626;45.436;10.942;2024-01-30T03:06:38;102591.09;;;-0.67
67829;BMP280;54626;45.436;10.942;2024-01-30T03:09:05;102581.75;;;-0.66
67829;BMP280;54626;45.436;10.942;2024-01-30T03:11:31;102592.63;;;-0.66
67829;BMP280;54626;45.436;10.942;2024-01-30T03:13:58;102584.53;;;-0.73
67829;BMP280;54626;45.436;10.942;2024-01-30T03:16:24;102583.53;;;-0.89
67829;BMP280;54626;45.436;10.942;2024-01-30T03:18:51;102575.88;;;-1.01
67829;BMP280;54626;45.436;10.942;2024-01-30T03:21:17;102572.69;;;-0.93
67829;BMP280;54626;45.436;10.942;2024-01-30T03:23:44;102576.56;;;-0.94
67829;BMP280;54626;45.436;10.942;2024-01-30T03:26:10;102578.53;;;-0.94
67829;BMP280;54626;45.436;10.942;2024-01-30T03:28:38;102578.22;;;-1.07
67829;BMP280;54626;45.436;10.942;2024-01-30T03:31:05;102578.69;;;-1.15
67829;BMP280;54626;45.436;10.942;2024-01-30T03:33:32;102575.69;;;-1.35
67829;BMP280;54626;45.436;10.942;2024-01-30T03:36:03;102584.13;;;-1.19
67829;BMP280;54626;45.436;10.942;2024-01-30T03:38:29;102570.69;;;-1.36
67829;BMP280;54626;45.436;10.942;2024-01-30T03:40:59;102577.16;;;-1.16
67829;BMP280;54626;45.436;10.942;2024-01-30T03:43:26;102576.72;;;-1.11
67829;BMP280;54626;45.436;10.942;2024-01-30T03:45:53;102586.00;;;-1.09
67829;BMP280;54626;45.436;10.942;2024-01-30T03:48:21;102587.53;;;-1.08
67829;BMP280;54626;45.436;10.942;2024-01-30T03:50:48;102582.88;;;-1.04
67829;BMP280;54626;45.436;10.942;2024-01-30T03:53:15;102579.09;;;-1.17
67829;BMP280;54626;45.436;10.942;2024-01-30T03:55:41;102579.84;;;-1.13
67829;BMP280;54626;45.436;10.942;2024-01-30T03:58:08;102570.84;;;-1.03
67829;BMP280;54626;45.436;10.942;2024-01-30T04:00:35;102577.84;;;-1.09
67829;BMP280;54626;45.436;10.942;2024-01-30T04:03:02;102574.78;;;-1.11
67829;BMP280;54626;45.436;10.942;2024-01-30T04:05:28;102579.03;;;-1.10
67829;BMP280;54626;45.436;10.942;2024-01-30T04:07:55;102579.41;;;-1.08
67829;BMP280;54626;45.436;10.942;2024-01-30T04:10:23;102565.88;;;-1.11
67829;BMP280;54626;45.436;10.942;2024-01-30T04:12:50;102564.34;;;-1.12
67829;BMP280;54626;45.436;10.942;2024-01-30T04:15:17;102575.88;;;-1.05
67829;BMP280;54626;45.436;10.942;2024-01-30T04:17:44;102574.78;;;-1.11
67829;BMP280;54626;45.436;10.942;2024-01-30T04:20:29;102571.72;;;-1.16
67829;BMP280;54626;45.436;10.942;2024-01-30T04:22:55;102561.31;;;-1.25
67829;BMP280;54626;45.436;10.942;2024-01-30T04:25:22;102570.94;;;-1.13
67829;BMP280;54626;45.436;10.942;2024-01-30T04:27:49;102572.91;;;-1.21
67829;BMP280;54626;45.436;10.942;2024-01-30T04:30:16;102574.78;;;-1.11
67829;BMP280;54626;45.436;10.942;2024-01-30T04:32:45;102575.19;;;-1.12
67829;BMP280;54626;45.436;10.942;2024-01-30T04:35:12;102571.31;;;-1.15
67829;BMP280;54626;45.436;10.942;2024-01-30T04:37:38;102569.81;;;-1.19
67829;BMP280;54626;45.436;10.942;2024-01-30T04:40:06;102565.50;;;-1.17
67829;BMP280;54626;45.436;10.942;2024-01-30T04:42:33;102571.34;;;-1.18
67829;BMP280;54626;45.436;10.942;2024-01-30T04:44:59;102570.63;;;-1.26
67829;BMP280;54626;45.436;10.942;2024-01-30T04:47:26;102572.97;;;-1.28
67829;BMP280;54626;45.436;10.942;2024-01-30T04:49:52;102571.38;;;-1.22
67829;BMP280;54626;45.436;10.942;2024-01-30T04:52:19;102566.63;;;-1.11
67829;BMP280;54626;45.436;10.942;2024-01-30T04:54:47;102570.53;;;-1.12
67829;BMP280;54626;45.436;10.942;2024-01-30T04:57:13;102569.41;;;-1.18
67829;BMP280;54626;45.436;10.942;2024-01-30T04:59:40;102571.84;;;-1.30
67829;BMP280;54626;45.436;10.942;2024-01-30T05:02:06;102568.72;;;-1.32
67829;BMP280;54626;45.436;10.942;2024-01-30T05:04:33;102566.38;;;-1.27
67829;BMP280;54626;45.436;10.942;2024-01-30T05:07:00;102570.25;;;-1.24
67829;BMP280;54626;45.436;10.942;2024-01-30T05:09:26;102576.06;;;-1.33
67829;BMP280;54626;45.436;10.942;2024-01-30T05:11:53;102575.31;;;-1.30
67829;BMP280;54626;45.436;10.942;2024-01-30T05:14:22;102566.00;;;-1.29
67829;BMP280;54626;45.436;10.942;2024-01-30T05:16:49;102577.75;;;-1.49
67829;BMP280;54626;45.436;10.942;2024-01-30T05:19:15;102571.97;;;-1.61
67829;BMP280;54626;45.436;10.942;2024-01-30T05:21:42;102573.22;;;-1.73
67829;BMP280;54626;45.436;10.942;2024-01-30T05:24:08;102569.75;;;-1.84
67829;BMP280;54626;45.436;10.942;2024-01-30T05:26:36;102566.31;;;-1.98
67829;BMP280;54626;45.436;10.942;2024-01-30T05:29:03;102571.00;;;-1.99
67829;BMP280;54626;45.436;10.942;2024-01-30T05:31:30;102574.88;;;-2.00
67829;BMP280;54626;45.436;10.942;2024-01-30T05:33:56;102572.09;;;-1.89
67829;BMP280;54626;45.436;10.942;2024-01-30T05:36:23;102577.47;;;-1.75
67829;BMP280;54626;45.436;10.942;2024-01-30T05:38:50;102575.16;;;-1.73
67829;BMP280;54626;45.436;10.942;2024-01-30T05:41:16;102580.94;;;-1.71
67829;BMP280;54626;45.436;10.942;2024-01-30T05:43:43;102584.44;;;-1.71
67829;BMP280;54626;45.436;10.942;2024-01-30T05:46:10;102579.78;;;-1.67
67829;BMP280;54626;45.436;10.942;2024-01-30T05:48:36;102574.34;;;-1.70
67829;BMP280;54626;45.436;10.942;2024-01-30T05:51:03;102586.31;;;-1.61
67829;BMP280;54626;45.436;10.942;2024-01-30T05:54:07;102577.00;;;-1.56
67829;BMP280;54626;45.436;10.942;2024-01-30T05:56:34;102574.66;;;-1.51
67829;BMP280;54626;45.436;10.942;2024-01-30T05:59:01;102576.94;;;-1.49
67829;BMP280;54626;45.436;10.942;2024-01-30T06:01:48;102575.81;;;-1.52
67829;BMP280;54626;45.436;10.942;2024-01-30T06:04:15;102582.00;;;-1.51
67829;BMP280;54626;45.436;10.942;2024-01-30T06:06:44;102579.25;;;-1.41
67829;BMP280;54626;45.436;10.942;2024-01-30T06:09:11;102581.91;;;-1.34
67829;BMP280;54626;45.436;10.942;2024-01-30T06:11:39;102579.56;;;-1.29
67829;BMP280;54626;45.436;10.942;2024-01-30T06:14:05;102577.22;;;-1.34
67829;BMP280;54626;45.436;10.942;2024-01-30T06:16:32;102580.72;;;-1.30
67829;BMP280;54626;45.436;10.942;2024-01-30T06:19:00;102590.03;;;-1.27
67829;BMP280;54626;45.436;10.942;2024-01-30T06:21:27;102581.13;;;-1.31
67829;BMP280;54626;45.436;10.942;2024-01-30T06:23:54;102581.13;;;-1.35
67829;BMP280;54626;45.436;10.942;2024-01-30T06:26:20;102592.00;;;-1.38
67829;BMP280;54626;45.436;10.942;2024-01-30T06:28:47;102588.88;;;-1.37
67829;BMP280;54626;45.436;10.942;2024-01-30T06:31:14;102588.13;;;-1.41
67829;BMP280;54626;45.436;10.942;2024-01-30T06:33:50;102594.69;;;-1.35
67829;BMP280;54626;45.436;10.942;2024-01-30T06:36:17;102594.28;;;-1.30
67829;BMP280;54626;45.436;10.942;2024-01-30T06:38:43;102601.66;;;-1.30
67829;BMP280;54626;45.436;10.942;2024-01-30T06:41:13;102605.91;;;-1.33
67829;BMP280;54626;45.436;10.942;2024-01-30T06:43:43;102611.75;;;-1.38
67829;BMP280;54626;45.436;10.942;2024-01-30T06:46:11;102609.78;;;-1.34
67829;BMP280;54626;45.436;10.942;2024-01-30T06:48:38;102606.31;;;-1.34
67829;BMP280;54626;45.436;10.942;2024-01-30T06:51:07;102599.34;;;-1.35
67829;BMP280;54626;45.436;10.942;2024-01-30T06:53:33;102608.63;;;-1.33
67829;BMP280;54626;45.436;10.942;2024-01-30T06:56:00;102612.53;;;-1.30
67829;BMP280;54626;45.436;10.942;2024-01-30T06:58:26;102611.31;;;-1.26
67829;BMP280;54626;45.436;10.942;2024-01-30T07:00:54;102610.84;;;-1.14
67829;BMP280;54626;45.436;10.942;2024-01-30T07:03:23;102610.13;;;-1.21
67829;BMP280;54626;45.436;10.942;2024-01-30T07:05:52;102614.41;;;-1.20
67829;BMP280;54626;45.436;10.942;2024-01-30T07:08:21;102612.50;;;-1.27
67829;BMP280;54626;45.436;10.942;2024-01-30T07:10:48;102610.84;;;-1.14
67829;BMP280;54626;45.436;10.942;2024-01-30T07:13:15;102612.34;;;-1.06
67829;BMP280;54626;45.436;10.942;2024-01-30T07:15:43;102620.06;;;-1.01
67829;BMP280;54626;45.436;10.942;2024-01-30T07:18:10;102624.38;;;-1.03
67829;BMP280;54626;45.436;10.942;2024-01-30T07:20:37;102626.25;;;-0.97
67829;BMP280;54626;45.436;10.942;2024-01-30T07:23:07;102627.41;;;-0.98
67829;BMP280;54626;45.436;10.942;2024-01-30T07:25:34;102628.63;;;-1.06
67829;BMP280;54626;45.436;10.942;2024-01-30T07:28:03;102628.97;;;-0.97
67829;BMP280;54626;45.436;10.942;2024-01-30T07:30:32;102627.72;;;-0.89
67829;BMP280;54626;45.436;10.942;2024-01-30T07:33:00;102627.25;;;-0.77
67829;BMP280;54626;45.436;10.942;2024-01-30T07:35:30;102628.38;;;-0.71
67829;BMP280;54626;45.436;10.942;2024-01-30T07:37:59;102630.56;;;-0.55
67829;BMP280;54626;45.436;10.942;2024-01-30T07:40:25;102630.56;;;-0.55
67829;BMP280;54626;45.436;10.942;2024-01-30T07:42:53;102632.66;;;-0.33
67829;BMP280;54626;45.436;10.942;2024-01-30T07:45:20;102634.66;;;-0.37
67829;BMP280;54626;45.436;10.942;2024-01-30T07:47:49;102637.09;;;-0.49
67829;BMP280;54626;45.436;10.942;2024-01-30T07:50:17;102644.91;;;-0.55
67829;BMP280;54626;45.436;10.942;2024-01-30T07:52:45;102652.59;;;-0.46
67829;BMP280;54626;45.436;10.942;2024-01-30T07:55:12;102650.16;;;-0.34
67829;BMP280;54626;45.436;10.942;2024-01-30T07:57:41;102655.47;;;-0.16
67829;BMP280;54626;45.436;10.942;2024-01-30T08:00:09;102649.88;;;-0.03
67829;BMP280;54626;45.436;10.942;2024-01-30T08:02:36;102652.19;;;-0.01
67829;BMP280;54626;45.436;10.942;2024-01-30T08:05:03;102652.56;;;0.01
67829;BMP280;54626;45.436;10.942;2024-01-30T08:07:29;102665.72;;;0.06
67829;BMP280;54626;45.436;10.942;2024-01-30T08:09:57;102663.03;;;0.02
67829;BMP280;54626;45.436;10.942;2024-01-30T08:12:25;102660.91;;;-0.16
67829;BMP280;54626;45.436;10.942;2024-01-30T08:14:51;102663.50;;;-0.06
67829;BMP280;54626;45.436;10.942;2024-01-30T08:17:18;102662.06;;;0.19
67829;BMP280;54626;45.436;10.942;2024-01-30T08:19:44;102659.94;;;0.34
67829;BMP280;54626;45.436;10.942;2024-01-30T08:22:12;102661.59;;;0.28
67829;BMP280;54626;45.436;10.942;2024-01-30T08:24:38;102671.56;;;0.34
67829;BMP280;54626;45.436;10.942;2024-01-30T08:27:07;102664.66;;;0.30
67829;BMP280;54626;45.436;10.942;2024-01-30T08:29:36;102664.47;;;0.44
67829;BMP280;54626;45.436;10.942;2024-01-30T08:32:03;102667.47;;;0.53
67829;BMP280;54626;45.436;10.942;2024-01-30T08:34:30;102666.00;;;0.75
67829;BMP280;54626;45.436;10.942;2024-01-30T08:36:57;102662.41;;;0.81
67829;BMP280;54626;45.436;10.942;2024-01-30T08:39:24;102667.81;;;0.85
67829;BMP280;54626;45.436;10.942;2024-01-30T08:41:50;102666.09;;;0.68
67829;BMP280;54626;45.436;10.942;2024-01-30T08:44:17;102669.50;;;0.45
67829;BMP280;54626;45.436;10.942;2024-01-30T08:46:44;102666.91;;;0.35
67829;BMP280;54626;45.436;10.942;2024-01-30T08:49:16;102660.66;;;0.38
67829;BMP280;54626;45.436;10.942;2024-01-30T08:51:43;102663.66;;;0.47
67829;BMP280;54626;45.436;10.942;2024-01-30T08:54:09;102675.19;;;0.58
67829;BMP280;54626;45.436;10.942;2024-01-30T08:56:37;102669.59;;;0.68
67829;BMP280;54626;45.436;10.942;2024-01-30T08:59:07;102666.09;;;0.94
67829;BMP280;54626;45.436;10.942;2024-01-30T09:01:37;102664.78;;;1.06
67829;BMP280;54626;45.436;10.942;2024-01-30T09:04:09;102672.56;;;1.30
67829;BMP280;54626;45.436;10.942;2024-01-30T09:06:36;102663.72;;;1.45
67829;BMP280;54626;45.436;10.942;2024-01-30T09:09:05;102666.81;;;1.47
67829;BMP280;54626;45.436;10.942;2024-01-30T09:11:32;102669.06;;;1.52
67829;BMP280;54626;45.436;10.942;2024-01-30T09:13:59;102663.38;;;1.66
67829;BMP280;54626;45.436;10.942;2024-01-30T09:16:33;102670.00;;;1.42
67829;BMP280;54626;45.436;10.942;2024-01-30T09:19:00;102676.41;;;1.32
67829;BMP280;54626;45.436;10.942;2024-01-30T09:21:27;102677.41;;;1.42
67829;BMP280;54626;45.436;10.942;2024-01-30T09:23:54;102680.25;;;1.35
67829;BMP280;54626;45.436;10.942;2024-01-30T09:26:21;102673.59;;;1.36
67829;BMP280;54626;45.436;10.942;2024-01-30T09:28:52;102681.78;;;1.36
67829;BMP280;54626;45.436;10.942;2024-01-30T09:31:18;102683.44;;;1.53
67829;BMP280;54626;45.436;10.942;2024-01-30T09:33:47;102680.19;;;1.38
67829;BMP280;54626;45.436;10.942;2024-01-30T09:36:15;102687.66;;;1.34
67829;BMP280;54626;45.436;10.942;2024-01-30T09:38:45;102683.66;;;1.20
67829;BMP280;54626;45.436;10.942;2024-01-30T09:41:11;102695.25;;;1.23
67829;BMP280;54626;45.436;10.942;2024-01-30T09:43:38;102688.97;;;1.26
67829;BMP280;54626;45.436;10.942;2024-01-30T09:46:11;102691.50;;;1.37
67829;BMP280;54626;45.436;10.942;2024-01-30T09:48:41;102692.88;;;1.25
67829;BMP280;54626;45.436;10.942;2024-01-30T09:51:14;102694.78;;;1.28
67829;BMP280;54626;45.436;10.942;2024-01-30T09:53:42;102697.19;;;1.46
67829;BMP280;54626;45.436;10.942;2024-01-30T09:56:12;102694.78;;;1.74
67829;BMP280;54626;45.436;10.942;2024-01-30T09:58:39;102701.84;;;1.91
67829;BMP280;54626;45.436;10.942;2024-01-30T10:01:06;102694.09;;;2.29
67829;BMP280;54626;45.436;10.942;2024-01-30T10:03:33;102691.78;;;2.46
67829;BMP280;54626;45.436;10.942;2024-01-30T10:06:01;102689.41;;;2.48
67829;BMP280;54626;45.436;10.942;2024-01-30T10:08:27;102685.56;;;2.46
67829;BMP280;54626;45.436;10.942;2024-01-30T10:10:56;102686.59;;;2.71
67829;BMP280;54626;45.436;10.942;2024-01-30T10:13:25;102683.53;;;2.85
67829;BMP280;54626;45.436;10.942;2024-01-30T10:15:52;102690.44;;;3.22
67829;BMP280;54626;45.436;10.942;2024-01-30T10:18:19;102685.56;;;3.45
67829;BMP280;54626;45.436;10.942;2024-01-30T10:20:45;102685.88;;;3.91
67829;BMP280;54626;45.436;10.942;2024-01-30T10:23:12;102675.59;;;3.83
67829;BMP280;54626;45.436;10.942;2024-01-30T10:25:39;102674.22;;;4.03
67829;BMP280;54626;45.436;10.942;2024-01-30T10:28:09;102679.53;;;3.94
67829;BMP280;54626;45.436;10.942;2024-01-30T10:30:35;102680.91;;;3.74
67829;BMP280;54626;45.436;10.942;2024-01-30T10:33:02;102675.78;;;3.76
67829;BMP280;54626;45.436;10.942;2024-01-30T10:35:29;102675.59;;;3.95
67829;BMP280;54626;45.436;10.942;2024-01-30T10:37:57;102675.94;;;3.97
67829;BMP280;54626;45.436;10.942;2024-01-30T10:40:28;102666.59;;;4.23
67829;BMP280;54626;45.436;10.942;2024-01-30T10:42:56;102670.56;;;4.47
67829;BMP280;54626;45.436;10.942;2024-01-30T10:45:25;102666.81;;;4.66
67829;BMP280;54626;45.436;10.942;2024-01-30T10:47:55;102656.44;;;4.73
67829;BMP280;54626;45.436;10.942;2024-01-30T10:50:25;102648.50;;;4.88
67829;BMP280;54626;45.436;10.942;2024-01-30T10:52:53;102648.03;;;5.02
67829;BMP280;54626;45.436;10.942;2024-01-30T10:55:23;102645.50;;;5.20
67829;BMP280;54626;45.436;10.942;2024-01-30T10:57:54;102640.69;;;5.45
67829;BMP280;54626;45.436;10.942;2024-01-30T11:00:21;102630.06;;;5.47
67829;BMP280;54626;45.436;10.942;2024-01-30T11:02:50;102630.66;;;5.51
67829;BMP280;54626;45.436;10.942;2024-01-30T11:05:24;102630.94;;;5.65
67829;BMP280;54626;45.436;10.942;2024-01-30T11:07:58;102623.59;;;5.84
67829;BMP280;54626;45.436;10.942;2024-01-30T11:10:28;102622.66;;;6.08
67829;BMP280;54626;45.436;10.942;2024-01-30T11:12:57;102613.84;;;5.92
67829;BMP280;54626;45.436;10.942;2024-01-30T11:15:24;102608.91;;;5.78
67829;BMP280;54626;45.436;10.942;2024-01-30T11:17:52;102611.22;;;5.58
67829;BMP280;54626;45.436;10.942;2024-01-30T11:20:31;102610.16;;;5.55
67829;BMP280;54626;45.436;10.942;2024-01-30T11:22:59;102593.91;;;5.70
67829;BMP280;54626;45.436;10.942;2024-01-30T11:25:26;102591.75;;;5.86
67829;BMP280;54626;45.436;10.942;2024-01-30T11:28:00;102595.88;;;5.91
67829;BMP280;54626;45.436;10.942;2024-01-30T11:30:29;102595.19;;;6.08
67829;BMP280;54626;45.436;10.942;2024-01-30T11:33:00;102586.38;;;6.13
67829;BMP280;54626;45.436;10.942;2024-01-30T11:35:30;102583.28;;;6.50
67829;BMP280;54626;45.436;10.942;2024-01-30T11:37:57;102585.00;;;6.66
67829;BMP280;54626;45.436;10.942;2024-01-30T11:40:27;102584.53;;;6.76
67829;BMP280;54626;45.436;10.942;2024-01-30T11:42:58;102584.25;;;6.92
67829;BMP280;54626;45.436;10.942;2024-01-30T11:45:28;102576.78;;;7.02
67829;BMP280;54626;45.436;10.942;2024-01-30T11:47:55;102575.69;;;6.99
67829;BMP280;54626;45.436;10.942;2024-01-30T11:50:22;102579.69;;;7.16
67829;BMP280;54626;45.436;10.942;2024-01-30T11:52:49;102572.91;;;7.35
67829;BMP280;54626;45.436;10.942;2024-01-30T11:55:15;102571.97;;;7.47
67829;BMP280;54626;45.436;10.942;2024-01-30T11:57:46;102573.97;;;7.55
67829;BMP280;54626;45.436;10.942;2024-01-30T12:00:17;102572.56;;;7.60
67829;BMP280;54626;45.436;10.942;2024-01-30T12:02:52;102569.19;;;7.56
67829;BMP280;54626;45.436;10.942;2024-01-30T12:05:25;102571.09;;;7.23
67829;BMP280;54626;45.436;10.942;2024-01-30T12:07:52;102555.69;;;6.99
67829;BMP280;54626;45.436;10.942;2024-01-30T12:10:20;102548.66;;;7.07
67829;BMP280;54626;45.436;10.942;2024-01-30T12:12:48;102549.91;;;7.06
67829;BMP280;54626;45.436;10.942;2024-01-30T12:15:16;102543.47;;;7.00
67829;BMP280;54626;45.436;10.942;2024-01-30T12:17:43;102535.66;;;6.98
67829;BMP280;54626;45.436;10.942;2024-01-30T12:20:12;102522.81;;;6.95
67829;BMP280;54626;45.436;10.942;2024-01-30T12:22:43;102522.06;;;7.13
67829;BMP280;54626;45.436;10.942;2024-01-30T12:25:11;102513.31;;;7.23
67829;BMP280;54626;45.436;10.942;2024-01-30T12:27:39;102515.31;;;7.23
67829;BMP280;54626;45.436;10.942;2024-01-30T12:30:10;102515.31;;;7.23
67829;BMP280;54626;45.436;10.942;2024-01-30T12:35:28;102514.69;;;7.78
67829;BMP280;54626;45.436;10.942;2024-01-30T12:37:59;102501.72;;;7.69
67829;BMP280;54626;45.436;10.942;2024-01-30T12:40:25;102505.56;;;7.72
67829;BMP280;54626;45.436;10.942;2024-01-30T12:42:56;102499.84;;;7.75
67829;BMP280;54626;45.436;10.942;2024-01-30T12:45:22;102488.31;;;7.62
67829;BMP280;54626;45.436;10.942;2024-01-30T12:47:49;102488.50;;;7.82
67829;BMP280;54626;45.436;10.942;2024-01-30T12:50:17;102480.75;;;7.95
67829;BMP280;54626;45.436;10.942;2024-01-30T12:52:44;102473.00;;;7.94
67829;BMP280;54626;45.436;10.942;2024-01-30T12:55:15;102477.63;;;7.88
67829;BMP280;54626;45.436;10.942;2024-01-30T12:57:42;102470.25;;;7.94
67829;BMP280;54626;45.436;10.942;2024-01-30T13:00:10;102455.34;;;8.00
67829;BMP280;54626;45.436;10.942;2024-01-30T13:02:37;102461.28;;;8.08
67829;BMP280;54626;45.436;10.942;2024-01-30T13:05:04;102453.91;;;8.14
67829;BMP280;54626;45.436;10.942;2024-01-30T13:07:31;102454.06;;;8.10
67829;BMP280;54626;45.436;10.942;2024-01-30T13:10:00;102451.00;;;8.08
67829;BMP280;54626;45.436;10.942;2024-01-30T13:12:30;102450.72;;;8.29
67829;BMP280;54626;45.436;10.942;2024-01-30T13:14:59;102438.22;;;8.20
67829;BMP280;54626;45.436;10.942;2024-01-30T13:17:32;102441.09;;;8.25
67829;BMP280;54626;45.436;10.942;2024-01-30T13:19:58;102436.06;;;8.38
67829;BMP280;54626;45.436;10.942;2024-01-30T13:22:29;102434.69;;;8.57
67829;BMP280;54626;45.436;10.942;2024-01-30T13:25:06;102427.63;;;8.56
67829;BMP280;54626;45.436;10.942;2024-01-30T13:27:34;102429.44;;;8.59
67829;BMP280;54626;45.436;10.942;2024-01-30T13:30:01;102430.13;;;8.54
67829;BMP280;54626;45.436;10.942;2024-01-30T13:32:27;102439.81;;;8.49
67829;BMP280;54626;45.436;10.942;2024-01-30T13:34:54;102432.91;;;8.68
67829;BMP280;54626;45.436;10.942;2024-01-30T13:37:22;102434.97;;;8.59
67829;BMP280;54626;45.436;10.942;2024-01-30T13:39:49;102434.44;;;8.84
67829;BMP280;54626;45.436;10.942;2024-01-30T13:42:15;102437.94;;;8.99
67829;BMP280;54626;45.436;10.942;2024-01-30T13:44:42;102437.25;;;9.03
67829;BMP280;54626;45.436;10.942;2024-01-30T13:47:10;102430.78;;;9.06
67829;BMP280;54626;45.436;10.942;2024-01-30T13:49:40;102439.47;;;9.00
67829;BMP280;54626;45.436;10.942;2024-01-30T13:52:06;102428.88;;;9.12
67829;BMP280;54626;45.436;10.942;2024-01-30T13:54:34;102435.81;;;9.22